Time;durP1;ratioP1;P1;durP2;ratioP2;P2;SDS_P1;SDS_P2;PMS_P1;PMS_P2;Temp;Humidity;BMP_temperature;BMP_pressure;BME280_temperature;BME280_humidity;BME280_pressure;Samples;Min_cycle;Max_cycle;Signal;HPM_P1;HPM_P2
2021/09/20 08:48:39;;;;;;;8.38;5.90;;;16.10;99.90;;;;;;5111266;27;20469;-73
2021/09/20 08:51:05;;;;;;;6.30;5.90;;;13.90;99.90;;;;;;5111166;28;20620;-73
2021/09/20 08:53:31;;;;;;;6.65;6.15;;;14.00;99.90;;;;;;5111225;28;20175;-74
2021/09/20 08:55:58;;;;;;;6.15;5.63;;;14.00;99.90;;;;;;5111086;28;20576;-74
2021/09/20 08:58:24;;;;;;;7.00;6.38;;;14.00;99.90;;;;;;5111003;28;20180;-74
2021/09/20 09:00:50;;;;;;;6.80;6.30;;;14.00;99.90;;;;;;5111057;28;20185;-74
2021/09/20 09:03:24;;;;;;;6.85;6.40;;;14.20;99.90;;;;;;5111012;28;20171;-74
2021/09/20 09:05:50;;;;;;;6.68;6.07;;;14.20;99.90;;;;;;5109659;28;20197;-74
2021/09/20 09:08:18;;;;;;;7.13;6.53;;;14.30;99.90;;;;;;5109551;28;20652;-74
2021/09/20 09:10:47;;;;;;;7.22;6.63;;;14.20;99.90;;;;;;5110870;28;20172;-74
2021/09/20 09:13:14;;;;;;;12.52;7.05;;;14.30;99.90;;;;;;5110822;28;20167;-74
2021/09/20 09:15:46;;;;;;;6.65;6.07;;;14.40;99.90;;;;;;5110780;28;20171;-74
2021/09/20 09:18:12;;;;;;;6.30;5.80;;;14.60;99.90;;;;;;5110760;28;20168;-74
2021/09/20 09:20:41;;;;;;;6.97;6.38;;;14.50;99.90;;;;;;5110679;28;20174;-74
2021/09/20 09:23:12;;;;;;;5.22;4.82;;;14.60;99.90;;;;;;5110624;28;20266;-74
2021/09/20 09:25:43;;;;;;;6.57;6.07;;;14.60;99.90;;;;;;5109388;28;20659;-74
2021/09/20 09:28:25;;;;;;;6.10;5.70;;;14.70;99.90;;;;;;5110526;28;20195;-74
2021/09/20 09:30:52;;;;;;;5.72;5.38;;;14.70;99.90;;;;;;5109246;28;20577;-74
2021/09/20 09:33:35;;;;;;;6.28;5.82;;;14.80;99.90;;;;;;5110427;28;20221;-74
2021/09/20 09:36:01;;;;;;;5.85;5.32;;;14.80;99.90;;;;;;5110415;28;20255;-74
2021/09/20 09:38:26;;;;;;;5.75;5.32;;;14.90;99.90;;;;;;5110348;28;20164;-74
2021/09/20 09:40:58;;;;;;;6.40;5.80;;;15.00;99.90;;;;;;5110342;28;20182;-74
2021/09/20 09:43:31;;;;;;;9.15;5.85;;;14.90;99.90;;;;;;5110274;28;20612;-74
2021/09/20 09:46:02;;;;;;;6.57;5.28;;;15.10;99.90;;;;;;5110257;28;20541;-74
2021/09/20 09:48:30;;;;;;;5.70;5.28;;;15.20;99.90;;;;;;5110435;28;20183;-74
2021/09/20 09:51:01;;;;;;;5.13;4.75;;;15.20;99.90;;;;;;5110188;28;20212;-74
2021/09/20 09:53:27;;;;;;;5.15;4.85;;;15.30;99.90;;;;;;5110123;28;20250;-74
2021/09/20 09:55:55;;;;;;;5.57;5.18;;;15.30;99.90;;;;;;5108784;28;20250;-74
2021/09/20 09:58:22;;;;;;;7.85;6.03;;;15.50;99.90;;;;;;5104590;28;20225;-74
2021/09/20 10:00:48;;;;;;;5.45;5.05;;;15.50;99.90;;;;;;5096482;28;20168;-74
2021/09/20 10:03:15;;;;;;;4.75;4.45;;;15.50;99.90;;;;;;5096332;28;20168;-74
2021/09/20 10:05:58;;;;;;;4.88;4.47;;;15.50;99.90;;;;;;5096275;28;20182;-74
2021/09/20 10:08:26;;;;;;;4.20;4.00;;;15.60;99.90;;;;;;5096158;28;20198;-74
2021/09/20 10:10:52;;;;;;;5.40;5.10;;;15.70;99.90;;;;;;5096176;28;20622;-74
2021/09/20 10:13:17;;;;;;;4.90;4.47;;;15.70;99.90;;;;;;5096145;28;20283;-74
2021/09/20 10:15:43;;;;;;;5.28;4.68;;;15.80;99.90;;;;;;5096000;28;20525;-74
2021/09/20 10:18:10;;;;;;;5.93;4.95;;;15.90;99.90;;;;;;5096047;28;20674;-74
2021/09/20 10:20:36;;;;;;;5.15;4.85;;;15.80;99.90;;;;;;5096029;28;20167;-74
2021/09/20 10:23:02;;;;;;;4.75;4.45;;;15.90;99.90;;;;;;5094640;28;20266;-74
2021/09/20 10:25:30;;;;;;;4.57;4.18;;;15.90;99.90;;;;;;5095872;28;20256;-74
2021/09/20 10:27:58;;;;;;;4.43;4.20;;;16.00;99.90;;;;;;5095724;28;20650;-74
2021/09/20 10:30:34;;;;;;;4.80;4.47;;;16.00;99.90;;;;;;5095797;28;20621;-74
2021/09/20 10:33:05;;;;;;;4.65;4.35;;;16.10;99.90;;;;;;5095749;28;20167;-74
2021/09/20 10:35:30;;;;;;;5.00;4.60;;;16.10;99.90;;;;;;5095738;28;20176;-74
2021/09/20 10:38:01;;;;;;;4.97;4.57;;;16.10;99.90;;;;;;5094373;28;20176;-74
2021/09/20 10:40:27;;;;;;;4.65;4.35;;;16.20;99.90;;;;;;5094364;28;20172;-74
2021/09/20 10:43:00;;;;;;;4.68;4.38;;;16.20;99.90;;;;;;5095545;28;20195;-74
2021/09/20 10:45:46;;;;;;;4.50;4.20;;;16.20;99.90;;;;;;5094274;28;20228;-74
2021/09/20 10:48:53;;;;;;;4.63;4.38;;;16.20;99.90;;;;;;5095152;28;20211;-74
2021/09/20 10:51:23;;;;;;;4.40;4.20;;;16.30;99.90;;;;;;5092322;28;20179;-74
2021/09/20 10:54:14;;;;;;;4.70;4.43;;;16.30;99.90;;;;;;5095339;28;20160;-74
2021/09/20 10:56:41;;;;;;;4.57;4.25;;;16.30;99.90;;;;;;5095286;28;20194;-74
2021/09/20 10:59:08;;;;;;;4.40;4.20;;;16.30;99.90;;;;;;5095145;28;20594;-74
2021/09/20 11:01:35;;;;;;;5.55;5.20;;;16.40;99.90;;;;;;5095132;28;20621;-74
2021/09/20 11:04:16;;;;;;;4.75;4.47;;;16.40;99.90;;;;;;5093836;28;20693;-74
2021/09/20 11:06:44;;;;;;;5.07;4.40;;;16.40;99.90;;;;;;5093813;28;20192;-74
2021/09/20 11:09:15;;;;;;;4.07;3.88;;;16.40;99.90;;;;;;5094896;28;20520;-74
2021/09/20 11:14:15;;;;;;;3.50;3.30;;;16.40;99.90;;;;;;5095124;28;20188;-74
2021/09/20 11:16:48;;;;;;;4.30;4.03;;;16.40;99.90;;;;;;5094925;28;20690;-74
2021/09/20 11:19:31;;;;;;;3.92;3.72;;;16.40;99.90;;;;;;5094883;28;20190;-74
2021/09/20 11:22:06;;;;;;;4.30;4.10;;;16.40;99.90;;;;;;5094806;28;20176;-74
2021/09/20 11:24:33;;;;;;;4.35;4.05;;;16.40;99.90;;;;;;5094698;28;20178;-74
2021/09/20 11:26:59;;;;;;;4.57;4.28;;;16.40;99.90;;;;;;5094639;28;20694;-74
2021/09/20 11:29:27;;;;;;;4.63;4.32;;;16.40;99.90;;;;;;5094673;28;20191;-74
2021/09/20 11:31:53;;;;;;;4.45;4.15;;;16.40;99.90;;;;;;5095046;28;20478;-74
2021/09/20 11:34:29;;;;;;;4.20;3.90;;;16.50;99.90;;;;;;5093290;28;20172;-74
2021/09/20 11:37:11;;;;;;;5.50;5.10;;;16.60;99.90;;;;;;5094557;28;20195;-74
2021/09/20 11:39:49;;;;;;;4.40;4.20;;;16.70;99.90;;;;;;5094525;28;20163;-74
2021/09/20 11:42:16;;;;;;;4.45;4.05;;;16.90;99.90;;;;;;5094359;28;20254;-74
2021/09/20 11:45:00;;;;;;;4.15;3.95;;;16.90;99.90;;;;;;5094352;28;20522;-74
2021/09/20 11:47:27;;;;;;;4.55;4.25;;;17.00;99.90;;;;;;5094095;28;20211;-74
2021/09/20 11:50:02;;;;;;;4.25;4.05;;;17.10;99.90;;;;;;5094267;28;20220;-74
2021/09/20 11:52:31;;;;;;;4.65;4.22;;;17.20;99.90;;;;;;5094137;28;20171;-74
2021/09/20 11:54:57;;;;;;;5.15;4.85;;;17.20;99.90;;;;;;5094033;28;20251;-74
2021/09/20 11:57:24;;;;;;;5.20;4.80;;;17.10;99.90;;;;;;5094062;28;20187;-74
2021/09/20 11:59:51;;;;;;;4.82;4.45;;;16.90;99.90;;;;;;5092832;28;20171;-74
2021/09/20 12:02:36;;;;;;;4.47;4.18;;;16.80;99.90;;;;;;5093993;28;20209;-74
2021/09/20 12:05:04;;;;;;;4.82;4.63;;;16.80;99.90;;;;;;5092732;28;20206;-74
2021/09/20 12:07:58;;;;;;;4.90;4.60;;;16.60;99.90;;;;;;5093888;28;20192;-74
2021/09/20 12:10:26;;;;;;;4.63;4.32;;;16.60;99.90;;;;;;5085740;28;20182;-74
2021/09/20 12:12:54;;;;;;;5.38;4.95;;;16.50;99.90;;;;;;5093883;28;20183;-74
2021/09/20 12:15:26;;;;;;;4.70;4.40;;;16.50;99.90;;;;;;5093848;28;20617;-74
2021/09/20 12:17:58;;;;;;;5.55;5.22;;;16.50;99.90;;;;;;5093792;28;20171;-74
2021/09/20 12:20:37;;;;;;;5.05;4.75;;;16.40;99.90;;;;;;5093755;28;20179;-74
2021/09/20 12:23:16;;;;;;;4.93;4.63;;;16.30;99.90;;;;;;5093519;28;20172;-74
2021/09/20 12:25:43;;;;;;;5.05;4.57;;;16.20;99.90;;;;;;5093721;28;20168;-74
2021/09/20 12:28:30;;;;;;;5.90;4.85;;;16.50;99.90;;;;;;5092207;28;20253;-74
2021/09/20 12:31:02;;;;;;;5.22;4.90;;;16.20;99.90;;;;;;5093602;28;20566;-74
2021/09/20 12:33:28;;;;;;;4.80;4.50;;;16.30;99.90;;;;;;5093664;28;20168;-74
2021/09/20 12:35:54;;;;;;;5.50;5.00;;;16.40;99.90;;;;;;5093525;28;20166;-74
2021/09/20 12:38:27;;;;;;;5.10;4.75;;;16.50;99.90;;;;;;5093556;28;20172;-74
2021/09/20 12:40:55;;;;;;;4.75;4.35;;;16.50;99.90;;;;;;5093438;28;20174;-74
2021/09/20 12:43:33;;;;;;;5.00;4.70;;;16.60;99.90;;;;;;5093432;28;20176;-74
2021/09/20 12:46:11;;;;;;;5.40;5.00;;;16.50;99.90;;;;;;5093489;28;20159;-74
2021/09/20 12:48:40;;;;;;;4.63;4.25;;;16.50;99.90;;;;;;5093462;28;20184;-74
2021/09/20 12:51:08;;;;;;;5.07;4.47;;;16.50;99.90;;;;;;5092011;28;20168;-74
2021/09/20 12:53:37;;;;;;;5.00;4.57;;;16.50;99.90;;;;;;5093443;28;20247;-74
2021/09/20 12:56:04;;;;;;;4.70;4.40;;;16.70;99.90;;;;;;5093324;28;20186;-74
2021/09/20 12:58:36;;;;;;;4.72;4.53;;;16.50;99.90;;;;;;5093236;28;20206;-74
2021/09/20 13:01:04;;;;;;;4.85;4.55;;;16.70;99.90;;;;;;5093323;28;20587;-74
2021/09/20 13:03:37;;;;;;;4.93;4.63;;;17.00;99.90;;;;;;5093268;28;20195;-74
2021/09/20 13:06:07;;;;;;;4.20;4.00;;;17.20;99.90;;;;;;5093227;28;20160;-74
2021/09/20 13:08:33;;;;;;;5.05;4.75;;;17.60;99.90;;;;;;5093335;28;20171;-74
2021/09/20 13:11:17;;;;;;;4.28;4.05;;;18.10;99.90;;;;;;5093179;28;20168;-74
2021/09/20 13:13:43;;;;;;;5.00;4.57;;;18.10;99.90;;;;;;5093282;28;20164;-74
2021/09/20 13:16:11;;;;;;;4.82;4.63;;;18.00;99.90;;;;;;5093086;28;20243;-74
2021/09/20 13:18:37;;;;;;;5.10;4.70;;;17.80;99.90;;;;;;5093216;28;20166;-74
2021/09/20 13:21:26;;;;;;;5.82;5.32;;;17.60;99.90;;;;;;5093329;28;20159;-74
2021/09/20 13:23:53;;;;;;;5.43;5.03;;;17.30;99.90;;;;;;5091883;28;20170;-74
2021/09/20 13:26:40;;;;;;;4.57;4.28;;;17.10;99.90;;;;;;5093049;28;20277;-74
2021/09/20 13:29:06;;;;;;;5.15;4.75;;;16.90;99.90;;;;;;5093138;28;20255;-74
2021/09/20 13:31:33;;;;;;;4.85;3.95;;;16.70;99.90;;;;;;5093036;28;20625;-74
2021/09/20 13:34:02;;;;;;;5.05;4.65;;;16.70;99.90;;;;;;5094696;28;20255;-74
2021/09/20 13:36:28;;;;;;;5.18;4.78;;;16.60;99.90;;;;;;5096897;28;20659;-74
2021/09/20 13:38:55;;;;;;;5.32;4.80;;;16.80;99.90;;;;;;5096808;28;20583;-74
2021/09/20 13:41:21;;;;;;;6.88;4.57;;;16.60;99.90;;;;;;5096744;28;20167;-74
2021/09/20 13:43:48;;;;;;;5.15;4.75;;;16.90;99.90;;;;;;5096792;28;20256;-74
2021/09/20 13:46:20;;;;;;;5.22;4.82;;;16.90;99.90;;;;;;5096447;28;20160;-74
2021/09/20 13:48:47;;;;;;;4.57;4.22;;;17.00;99.90;;;;;;5095323;28;20580;-74
2021/09/20 13:51:13;;;;;;;5.18;4.65;;;17.20;99.90;;;;;;5096645;28;20194;-74
2021/09/20 13:53:38;;;;;;;5.25;4.75;;;16.90;99.90;;;;;;5096533;28;20206;-74
2021/09/20 13:56:04;;;;;;;5.35;4.95;;;16.90;99.90;;;;;;5095224;28;20391;-74
2021/09/20 13:58:30;;;;;;;5.13;4.65;;;16.80;99.90;;;;;;5095130;28;20199;-74
2021/09/20 14:00:57;;;;;;;6.72;4.80;;;16.70;99.90;;;;;;5096407;28;20621;-74
2021/09/20 14:03:23;;;;;;;5.35;5.00;;;16.70;99.90;;;;;;5096389;28;20174;-74
2021/09/20 14:05:50;;;;;;;4.90;4.63;;;16.60;99.90;;;;;;5096333;28;20167;-74
2021/09/20 14:08:18;;;;;;;4.95;4.65;;;16.60;99.90;;;;;;5096202;28;20223;-74
2021/09/20 14:10:45;;;;;;;5.93;5.50;;;16.60;99.90;;;;;;5094939;28;20191;-74
2021/09/20 14:13:11;;;;;;;6.10;5.65;;;16.50;99.90;;;;;;5096166;28;20175;-74
2021/09/20 14:15:38;;;;;;;5.07;4.78;;;16.40;99.90;;;;;;5096084;28;20167;-74
2021/09/20 14:18:05;;;;;;;5.72;5.15;;;16.40;99.90;;;;;;5094799;28;20179;-74
2021/09/20 14:20:30;;;;;;;6.05;5.55;;;16.40;99.90;;;;;;5096043;28;20171;-74
2021/09/20 14:22:58;;;;;;;5.45;4.65;;;16.60;99.90;;;;;;5095926;28;20174;-74
2021/09/20 14:25:25;;;;;;;5.80;5.22;;;16.50;99.90;;;;;;5095939;28;20172;-74
2021/09/20 14:27:51;;;;;;;5.18;4.85;;;16.40;99.90;;;;;;5095917;28;20199;-74
2021/09/20 14:30:18;;;;;;;4.57;4.18;;;16.30;99.90;;;;;;5095859;28;20171;-74
2021/09/20 14:32:46;;;;;;;7.82;4.68;;;16.30;99.90;;;;;;5095925;28;20222;-74
2021/09/20 14:35:12;;;;;;;6.45;5.22;;;16.30;99.90;;;;;;5095703;28;20160;-74
2021/09/20 14:37:38;;;;;;;5.00;4.57;;;16.30;99.90;;;;;;5095706;28;20517;-74
2021/09/20 14:40:17;;;;;;;4.90;4.60;;;16.30;99.90;;;;;;5095611;28;20171;-74
2021/09/20 14:42:44;;;;;;;6.53;4.25;;;16.30;99.90;;;;;;5095588;28;20237;-74
2021/09/20 14:45:13;;;;;;;5.38;4.88;;;16.30;99.90;;;;;;5095402;28;20163;-74
2021/09/20 14:47:39;;;;;;;5.28;4.97;;;16.30;99.90;;;;;;5095296;28;20676;-74
2021/09/20 14:50:06;;;;;;;4.93;4.53;;;16.20;99.90;;;;;;5095458;28;20164;-74
2021/09/20 14:52:33;;;;;;;5.13;4.72;;;16.20;99.90;;;;;;5095401;28;20171;-74
2021/09/20 14:54:59;;;;;;;5.30;4.85;;;16.30;99.90;;;;;;5095394;28;20167;-74
2021/09/20 14:57:24;;;;;;;4.60;4.20;;;16.30;99.90;;;;;;5095236;28;20187;-74
2021/09/20 14:59:50;;;;;;;5.43;4.78;;;16.20;99.90;;;;;;5095296;28;20686;-74
2021/09/20 15:02:16;;;;;;;4.68;4.47;;;16.30;99.90;;;;;;5095115;28;20251;-74
2021/09/20 15:04:42;;;;;;;5.53;4.70;;;16.20;99.90;;;;;;5095134;28;20255;-74
2021/09/20 15:07:07;;;;;;;4.30;3.92;;;16.40;99.90;;;;;;5095018;28;20731;-74
2021/09/20 15:09:33;;;;;;;6.28;4.60;;;16.10;99.90;;;;;;5095038;28;20175;-74
2021/09/20 15:11:59;;;;;;;4.43;4.22;;;16.10;99.90;;;;;;5094956;28;20251;-74
2021/09/20 15:14:25;;;;;;;4.65;4.35;;;16.20;99.90;;;;;;5094991;28;20251;-74
2021/09/20 15:16:51;;;;;;;4.90;3.88;;;16.20;99.90;;;;;;5094823;28;20168;-74
2021/09/20 15:19:16;;;;;;;4.40;4.10;;;16.20;99.90;;;;;;5094782;28;20671;-74
2021/09/20 15:21:42;;;;;;;4.43;4.13;;;16.20;99.90;;;;;;5094794;28;20255;-74
2021/09/20 15:24:07;;;;;;;4.63;4.22;;;16.20;99.90;;;;;;5094725;28;20164;-74
2021/09/20 15:26:33;;;;;;;7.07;4.53;;;16.20;99.90;;;;;;5094617;28;20587;-74
2021/09/20 15:28:59;;;;;;;5.03;4.53;;;16.20;99.90;;;;;;5094598;28;20167;-74
2021/09/20 15:31:25;;;;;;;4.53;4.22;;;16.10;99.90;;;;;;5094542;28;20160;-74
2021/09/20 15:33:51;;;;;;;5.65;5.25;;;16.10;99.90;;;;;;5094574;28;20493;-74
2021/09/20 15:36:18;;;;;;;4.75;4.35;;;16.00;99.90;;;;;;5094500;28;20172;-74
2021/09/20 15:38:43;;;;;;;4.63;4.32;;;15.90;99.90;;;;;;5094453;28;20369;-74
2021/09/20 15:41:09;;;;;;;4.68;4.38;;;15.90;99.90;;;;;;5094401;28;20281;-74
2021/09/20 15:43:35;;;;;;;4.35;4.05;;;15.80;99.90;;;;;;5094368;28;20163;-74
2021/09/20 15:46:00;;;;;;;6.68;4.20;;;15.80;99.90;;;;;;5094200;28;20250;-75
2021/09/20 15:48:26;;;;;;;4.63;4.32;;;15.80;99.90;;;;;;5094143;28;20199;-74
2021/09/20 15:50:53;;;;;;;4.60;4.30;;;15.70;99.90;;;;;;5093421;28;20183;-74
2021/09/20 15:53:18;;;;;;;4.97;4.38;;;15.60;99.90;;;;;;5094217;28;20525;-74
2021/09/20 15:55:45;;;;;;;4.80;4.40;;;15.60;99.90;;;;;;5093917;28;20164;-74
2021/09/20 15:58:11;;;;;;;4.63;4.32;;;15.60;99.90;;;;;;5092535;28;20196;-74
2021/09/20 16:00:36;;;;;;;4.55;4.15;;;15.60;99.90;;;;;;5093921;28;20172;-74
2021/09/20 16:03:02;;;;;;;4.82;3.95;;;15.60;99.90;;;;;;5094056;28;20197;-74
2021/09/20 16:05:28;;;;;;;5.63;5.00;;;15.60;99.90;;;;;;5093988;28;20200;-74
2021/09/20 16:07:56;;;;;;;4.57;4.35;;;15.50;99.90;;;;;;5093888;28;20282;-74
2021/09/20 16:10:22;;;;;;;4.65;4.35;;;15.60;99.90;;;;;;5092610;28;20210;-74
2021/09/20 16:12:48;;;;;;;5.13;4.72;;;15.40;99.90;;;;;;5093943;28;20557;-74
2021/09/20 16:15:16;;;;;;;5.05;4.70;;;15.30;99.90;;;;;;5093811;28;20167;-74
2021/09/20 16:17:43;;;;;;;5.20;4.90;;;15.20;99.90;;;;;;5093758;28;20168;-74
2021/09/20 16:20:09;;;;;;;9.55;5.15;;;15.20;99.90;;;;;;5092458;28;20621;-74
2021/09/20 16:22:35;;;;;;;6.15;5.50;;;15.00;99.90;;;;;;5092389;28;20229;-74
2021/09/20 16:25:01;;;;;;;5.78;5.25;;;14.90;99.90;;;;;;5093599;28;20167;-74
2021/09/20 16:27:26;;;;;;;5.35;4.95;;;14.90;99.90;;;;;;5092205;28;20223;-74
2021/09/20 16:29:54;;;;;;;5.43;5.05;;;14.80;99.90;;;;;;5093544;28;20260;-74
2021/09/20 16:32:19;;;;;;;4.82;4.53;;;14.80;99.90;;;;;;5093563;28;20202;-74
2021/09/20 16:34:45;;;;;;;5.65;5.22;;;14.80;99.90;;;;;;5092286;28;20163;-74
2021/09/20 16:37:11;;;;;;;7.38;5.35;;;14.90;99.90;;;;;;5093528;28;20174;-74
2021/09/20 16:39:38;;;;;;;5.45;5.05;;;14.60;99.90;;;;;;5093478;28;20630;-75
2021/09/20 16:42:05;;;;;;;5.97;5.57;;;14.70;99.90;;;;;;5093271;28;20176;-75
2021/09/20 16:44:30;;;;;;;5.68;5.18;;;14.70;99.90;;;;;;5093327;28;20248;-75
2021/09/20 16:46:56;;;;;;;8.25;5.22;;;14.60;99.90;;;;;;5093181;28;20609;-75
2021/09/20 16:49:22;;;;;;;9.55;5.05;;;14.60;99.90;;;;;;5093360;28;20243;-78
